Nearby METAR Reports

 

KFNL - Ft Collins/Lovel, Colorado, USA
Distance from station: E 23mi, 37km
Updated: Wed, 23-Sep-2020 9:56am MDT
Clear
Clear
 Wind from NE
Wind: NE 5 mph , 7 km/h
Temperature: 73°F , 23°C
Dew Point: 41°F , 5°C
Humidity: 31%
Barometer: 30.17 inHg , 1021.7 hPa
Clouds: Clear
Visibility: 10 miles , 16 km
2020/09/23 15:56 KFNL 231556Z 04004KT 10SM CLR 23/05 A3017 RMK AO2 SLP158 T02330050
KLMO - Longmont/Vbrand, Colorado, USA
Distance from station: SE 26mi, 41km
Updated: Wed, 23-Sep-2020 9:35am MDT
Partly cloudy
Partly cloudy
 Wind from calm
Wind: Calm
Temperature: 73°F , 23°C
Dew Point: 39°F , 4°C
Humidity: 29%
Barometer: 30.18 inHg , 1022 hPa
Clouds: Partly cloudy
Visibility: 10 miles , 16 km
Cloud details: Partly cloudy 12000 ft
2020/09/23 15:35 KLMO 231535Z AUTO 00000KT 10SM SCT120 23/04 A3018 RMK AO2 T02250042
 
KBDU - Boulder Muni, Colorado, USA
Distance from station: SSE 32mi, 52km
Updated: Wed, 23-Sep-2020 9:48am MDT
Clear
Clear
 Wind from ESE
Wind: ESE 3 mph , 6 km/h
Temperature: 70°F , 21°C
Dew Point: 41°F , 5°C
Humidity: 35%
Barometer: 30.18 inHg , 1022 hPa
Clouds: Clear
Visibility: 10 miles , 16 km
2020/09/23 15:48 KBDU 231548Z AUTO 11003KT 10SM CLR 21/05 A3018 RMK AO2
KEIK - Erie Muni, Colorado, USA
Distance from station: SE 38mi, 61km
Updated: Wed, 23-Sep-2020 9:55am MDT
Clear
Clear
 Wind from calm
Wind: Calm
Temperature: 77°F , 25°C
Dew Point: 36°F , 2°C
Humidity: 22%
Barometer: 30.18 inHg , 1022 hPa
Clouds: Clear
Visibility: 10 miles , 16 km
2020/09/23 15:55 KEIK 231555Z AUTO 00000KT 10SM CLR 25/02 A3018 RMK AO2 T02500023
 
KBJC - Broomfield/Jeffc, Colorado, USA
Distance from station: SSE 44mi, 70km
Updated: Wed, 23-Sep-2020 9:45am MDT
Partly cloudy
Partly cloudy
 Wind from S
Wind: S 5 mph , 7 km/h
Temperature: 70°F , 21°C
Dew Point: 41°F , 5°C
Humidity: 35%
Barometer: 30.22 inHg , 1023.4 hPa
Clouds: Partly cloudy
Visibility: 10 miles , 16 km
Cloud details: Partly cloudy 15000 ft
2020/09/23 15:45 KBJC 231545Z 18004KT 10SM SCT150 21/05 A3022
KGXY - Greeley/Weld, Colorado, USA
Distance from station: E 44mi, 71km
Updated: Wed, 23-Sep-2020 9:56am MDT
Few Clouds
Few Clouds
 Wind from varies
Wind: varies 3 mph , 6 km/h
Temperature: 72°F , 22°C
Dew Point: 46°F , 8°C
Humidity: 41%
Barometer: 30.17 inHg , 1021.7 hPa
Clouds: Few Clouds
Visibility: 10 miles , 16 km
Cloud details: Few Clouds 11000 ft
2020/09/23 15:56 KGXY 231556Z AUTO VRB03KT 10SM FEW110 22/08 A3017 RMK AO2 SLP178 T02220083
 
K33V - Walden, Colorado, USA
Distance from station: WNW 48mi, 77km
Updated: Wed, 23-Sep-2020 9:35am MDT
Clear
Clear
 Wind from S
Wind: S 9 mph , 15 km/h
Temperature: 57°F , 14°C
Dew Point: 37°F , 3°C
Humidity: 48%
Barometer: 30.43 inHg , 1030.5 hPa
Clouds: Clear
2020/09/23 15:35 K33V 231535Z AUTO 18008KT CLR 14/03 A3043 RMK AO1
K0CO - Berthoud Pass, Colorado, USA
Distance from station: SSW 49mi, 79km
Updated: Wed, 23-Sep-2020 9:55am MDT
Clear
Clear
 Wind from NW
Wind: NW 12 mph , 19 km/h, Gust: 16 mph , 26 km/h
Temperature: 37°F , 3°C
Wind Chill: 29°F , -2°C
Dew Point: 21°F , -6°C
Humidity: 52%
Barometer: 30.66 inHg , 1038.3 hPa
Clouds: Clear
Visibility: 10 miles , 16 km
2020/09/23 15:55 K0CO 231555Z AUTO 32010G14KT 301V031 10SM CLR 03/M06 A3066 RMK AO2 PWINO